Time;durP1;ratioP1;P1;durP2;ratioP2;P2;SDS_P1;SDS_P2;PMS_P1;PMS_P2;Temp;Humidity;BMP_temperature;BMP_pressure;BME280_temperature;BME280_humidity;BME280_pressure;Samples;Min_cycle;Max_cycle;Signal;HPM_P1;HPM_P2
2023/06/03 00:01:04;;;;;;;5.47;1.80;;;;;;;;;;4994756;28;20120;-60
2023/06/03 00:03:31;;;;;;;5.80;1.80;;;;;;;;;;5010590;28;20070;-60
2023/06/03 00:05:58;;;;;;;9.23;1.80;;;;;;;;;;4994977;28;20062;-60
2023/06/03 00:08:24;;;;;;;4.68;1.48;;;;;;;;;;4994388;28;20054;-60
2023/06/03 00:10:51;;;;;;;5.68;1.90;;;;;;;;;;5012305;28;20037;-60
2023/06/03 00:13:17;;;;;;;2.88;1.52;;;;;;;;;;5011930;28;20099;-60
2023/06/03 00:15:43;;;;;;;5.68;1.55;;;;;;;;;;4994723;28;20049;-60
2023/06/03 00:18:09;;;;;;;5.82;2.03;;;;;;;;;;5012005;28;20188;-59
2023/06/03 00:20:36;;;;;;;3.88;2.35;;;;;;;;;;5011794;28;20049;-60
2023/06/03 00:23:03;;;;;;;5.32;1.73;;;;;;;;;;5012237;28;20121;-60
2023/06/03 00:25:31;;;;;;;5.35;2.40;;;;;;;;;;5011808;28;20046;-60
2023/06/03 00:27:57;;;;;;;6.35;1.98;;;;;;;;;;5011990;28;20054;-60
2023/06/03 00:30:23;;;;;;;6.72;1.80;;;;;;;;;;5011719;28;20038;-60
2023/06/03 00:32:49;;;;;;;3.78;1.95;;;;;;;;;;5011850;28;20050;-59
2023/06/03 00:35:15;;;;;;;4.30;1.98;;;;;;;;;;4994399;28;20056;-60
2023/06/03 00:37:41;;;;;;;5.57;2.30;;;;;;;;;;5012086;28;20045;-60
2023/06/03 00:40:07;;;;;;;3.40;1.67;;;;;;;;;;5015075;28;20049;-60
2023/06/03 00:42:33;;;;;;;3.67;1.80;;;;;;;;;;5015621;28;20046;-59
2023/06/03 00:44:59;;;;;;;3.50;1.70;;;;;;;;;;5015683;28;20104;-60
2023/06/03 00:47:25;;;;;;;4.82;1.92;;;;;;;;;;5015394;28;20053;-59
2023/06/03 00:49:52;;;;;;;4.45;1.83;;;;;;;;;;5015907;28;20049;-60
2023/06/03 00:52:18;;;;;;;3.10;1.38;;;;;;;;;;5014413;28;20089;-59
2023/06/03 00:54:47;;;;;;;6.53;1.95;;;;;;;;;;4998329;28;20128;-60
2023/06/03 00:57:13;;;;;;;3.15;1.60;;;;;;;;;;5015291;28;20057;-62
2023/06/03 00:59:39;;;;;;;4.28;1.48;;;;;;;;;;5015688;28;20042;-59
2023/06/03 01:02:05;;;;;;;2.80;1.60;;;;;;;;;;5015192;28;20098;-59
2023/06/03 01:04:32;;;;;;;4.18;1.67;;;;;;;;;;5015225;28;20096;-59
2023/06/03 01:07:13;;;;;;;5.15;1.88;;;;;;;;;;5015354;28;20517;-59
2023/06/03 01:09:41;;;;;;;5.13;1.60;;;;;;;;;;5015597;28;20053;-59
2023/06/03 01:12:27;;;;;;;4.68;1.80;;;;;;;;;;5015318;28;20555;-59
2023/06/03 01:15:10;;;;;;;7.93;1.73;;;;;;;;;;5015564;28;20054;-59
2023/06/03 01:17:39;;;;;;;2.85;1.33;;;;;;;;;;5014670;28;20498;-60
2023/06/03 01:20:09;;;;;;;4.32;1.77;;;;;;;;;;5015116;28;20490;-60
2023/06/03 01:22:40;;;;;;;4.63;1.75;;;;;;;;;;5015023;28;20050;-60
2023/06/03 01:25:10;;;;;;;5.68;1.70;;;;;;;;;;5015417;28;20054;-60
2023/06/03 01:27:37;;;;;;;4.78;1.83;;;;;;;;;;5013671;28;20042;-60
2023/06/03 01:30:06;;;;;;;3.42;1.52;;;;;;;;;;4997734;28;20086;-59
2023/06/03 01:32:32;;;;;;;5.20;1.70;;;;;;;;;;5014331;28;20070;-60
2023/06/03 01:34:59;;;;;;;3.28;1.42;;;;;;;;;;5014846;28;20045;-59
2023/06/03 01:37:26;;;;;;;4.97;1.60;;;;;;;;;;5014819;28;20085;-60
2023/06/03 01:39:53;;;;;;;4.20;1.60;;;;;;;;;;4997458;28;20045;-59
2023/06/03 01:42:19;;;;;;;5.05;1.17;;;;;;;;;;4997302;28;20058;-60
2023/06/03 01:44:45;;;;;;;5.55;2.40;;;;;;;;;;5014435;28;20046;-60
2023/06/03 01:47:11;;;;;;;3.25;1.67;;;;;;;;;;5014633;28;20049;-60
2023/06/03 01:49:38;;;;;;;2.63;1.33;;;;;;;;;;5013493;28;20048;-60
2023/06/03 01:52:04;;;;;;;2.75;1.65;;;;;;;;;;4996694;28;20042;-60
2023/06/03 01:54:30;;;;;;;3.47;1.20;;;;;;;;;;5014423;28;20144;-60
2023/06/03 01:56:57;;;;;;;4.07;1.25;;;;;;;;;;5014573;28;20054;-59
2023/06/03 01:59:23;;;;;;;3.55;1.38;;;;;;;;;;5013911;28;20103;-60
2023/06/03 02:01:51;;;;;;;2.13;1.02;;;;;;;;;;5012959;28;20053;-61
2023/06/03 02:04:17;;;;;;;4.38;1.30;;;;;;;;;;5014327;28;20054;-59
2023/06/03 02:06:53;;;;;;;3.58;1.55;;;;;;;;;;5014522;28;20042;-60
2023/06/03 02:09:24;;;;;;;2.65;1.20;;;;;;;;;;5012810;28;20539;-59
2023/06/03 02:11:51;;;;;;;3.03;1.55;;;;;;;;;;4996923;28;20445;-60
2023/06/03 02:14:17;;;;;;;4.25;1.60;;;;;;;;;;4996101;28;20050;-60
2023/06/03 02:16:43;;;;;;;7.70;1.60;;;;;;;;;;4996763;28;20438;-60
2023/06/03 02:19:17;;;;;;;4.63;2.08;;;;;;;;;;4996945;28;20096;-60
2023/06/03 02:21:43;;;;;;;4.00;1.90;;;;;;;;;;4996361;28;20096;-60
2023/06/03 02:24:10;;;;;;;4.53;1.90;;;;;;;;;;5014064;28;20058;-60
2023/06/03 02:26:36;;;;;;;5.53;2.03;;;;;;;;;;4996555;28;20049;-60
2023/06/03 02:29:03;;;;;;;3.85;1.90;;;;;;;;;;4995853;28;20081;-59
2023/06/03 02:31:30;;;;;;;3.80;2.00;;;;;;;;;;4996504;28;20069;-60
2023/06/03 02:33:56;;;;;;;4.70;1.77;;;;;;;;;;4996549;28;20046;-60
2023/06/03 02:36:22;;;;;;;3.15;1.73;;;;;;;;;;5013551;28;20041;-60
2023/06/03 02:38:48;;;;;;;3.30;1.70;;;;;;;;;;4996372;28;20054;-60
2023/06/03 02:41:15;;;;;;;7.35;2.20;;;;;;;;;;5013430;28;20054;-60
2023/06/03 02:43:41;;;;;;;3.85;1.80;;;;;;;;;;5013234;28;20084;-60
2023/06/03 02:46:07;;;;;;;5.80;2.40;;;;;;;;;;5013751;28;20050;-59
2023/06/03 02:48:34;;;;;;;4.40;2.00;;;;;;;;;;5013262;28;20525;-59
2023/06/03 02:51:00;;;;;;;5.15;2.10;;;;;;;;;;5012381;28;20042;-61
2023/06/03 02:53:27;;;;;;;6.10;2.10;;;;;;;;;;5013232;28;20046;-59
2023/06/03 02:55:53;;;;;;;4.85;1.92;;;;;;;;;;5013213;28;20414;-60
2023/06/03 02:58:19;;;;;;;3.03;1.60;;;;;;;;;;5012649;28;20249;-60
2023/06/03 03:00:45;;;;;;;3.95;1.67;;;;;;;;;;5013429;28;20104;-60
2023/06/03 03:03:12;;;;;;;4.25;1.67;;;;;;;;;;4994550;28;20089;-59
2023/06/03 03:05:40;;;;;;;3.63;1.80;;;;;;;;;;4995965;28;20054;-59
2023/06/03 03:08:06;;;;;;;3.65;2.08;;;;;;;;;;4995831;28;20054;-60
2023/06/03 03:10:32;;;;;;;3.85;1.45;;;;;;;;;;5012705;28;20081;-59
2023/06/03 03:12:58;;;;;;;2.22;1.27;;;;;;;;;;5012780;28;20498;-59
2023/06/03 03:15:24;;;;;;;5.22;1.70;;;;;;;;;;5012843;28;20053;-60
2023/06/03 03:17:50;;;;;;;4.07;1.42;;;;;;;;;;4995823;28;20132;-60
2023/06/03 03:20:16;;;;;;;3.05;1.67;;;;;;;;;;5012821;28;20045;-60
2023/06/03 03:22:44;;;;;;;2.25;1.23;;;;;;;;;;5012857;28;20490;-60
2023/06/03 03:25:11;;;;;;;3.30;1.55;;;;;;;;;;4995601;28;20054;-60
2023/06/03 03:27:37;;;;;;;4.18;1.55;;;;;;;;;;5012457;28;20042;-59
2023/06/03 03:30:04;;;;;;;3.05;1.27;;;;;;;;;;4995677;28;20486;-59
2023/06/03 03:32:31;;;;;;;5.07;1.17;;;;;;;;;;5012606;28;20502;-60
2023/06/03 03:35:00;;;;;;;2.55;1.40;;;;;;;;;;5012767;28;20049;-60
2023/06/03 03:37:26;;;;;;;5.72;1.20;;;;;;;;;;4995217;28;20046;-59
2023/06/03 03:39:52;;;;;;;2.58;1.40;;;;;;;;;;5012528;28;20046;-59
2023/06/03 03:42:18;;;;;;;4.57;1.20;;;;;;;;;;5012073;28;20046;-59
2023/06/03 03:44:44;;;;;;;2.05;1.02;;;;;;;;;;5012598;28;20038;-59
2023/06/03 03:47:10;;;;;;;3.33;1.50;;;;;;;;;;5011479;28;20045;-60
2023/06/03 03:49:37;;;;;;;2.67;0.90;;;;;;;;;;4995182;28;20061;-59
2023/06/03 03:52:04;;;;;;;6.45;1.65;;;;;;;;;;4995225;28;20482;-59
2023/06/03 03:54:30;;;;;;;2.33;1.17;;;;;;;;;;4994764;28;20541;-60
2023/06/03 03:56:56;;;;;;;2.75;1.52;;;;;;;;;;5012210;28;20041;-60
2023/06/03 03:59:22;;;;;;;1.67;1.08;;;;;;;;;;5012160;28;20085;-60
2023/06/03 04:01:48;;;;;;;2.88;1.40;;;;;;;;;;5012328;28;20049;-60
2023/06/03 04:04:26;;;;;;;3.42;1.20;;;;;;;;;;4994801;28;20361;-60
2023/06/03 04:06:54;;;;;;;4.57;1.42;;;;;;;;;;5012257;28;20049;-60
2023/06/03 04:09:20;;;;;;;6.40;1.42;;;;;;;;;;4994889;28;20118;-60
2023/06/03 04:11:46;;;;;;;3.50;1.38;;;;;;;;;;5012021;28;20058;-60
2023/06/03 04:14:16;;;;;;;1.77;0.90;;;;;;;;;;5011894;28;20045;-60
2023/06/03 04:16:58;;;;;;;2.43;1.20;;;;;;;;;;5012343;28;20096;-59
2023/06/03 04:19:30;;;;;;;3.25;1.20;;;;;;;;;;5011740;28;20100;-60
2023/06/03 04:21:57;;;;;;;3.85;1.42;;;;;;;;;;5012429;28;20046;-60
2023/06/03 04:24:23;;;;;;;4.20;1.60;;;;;;;;;;5010370;28;20069;-60
2023/06/03 04:26:49;;;;;;;5.85;1.17;;;;;;;;;;5012215;28;20054;-60
2023/06/03 04:29:15;;;;;;;3.15;1.25;;;;;;;;;;5011872;28;20056;-60
2023/06/03 04:31:42;;;;;;;2.20;1.05;;;;;;;;;;5012015;28;20053;-59
2023/06/03 04:34:08;;;;;;;4.30;1.20;;;;;;;;;;5012013;28;20107;-60
2023/06/03 04:36:34;;;;;;;4.05;1.50;;;;;;;;;;4994515;28;20517;-60
2023/06/03 04:39:00;;;;;;;2.65;1.15;;;;;;;;;;5011872;28;20054;-59
2023/06/03 04:41:27;;;;;;;2.63;0.95;;;;;;;;;;5011659;28;20115;-60
2023/06/03 04:43:54;;;;;;;3.35;1.75;;;;;;;;;;5012157;28;20486;-60
2023/06/03 04:46:21;;;;;;;1.88;1.17;;;;;;;;;;5011675;28;20061;-60
2023/06/03 04:48:48;;;;;;;3.47;1.10;;;;;;;;;;4994886;28;20164;-59
2023/06/03 04:51:14;;;;;;;3.33;1.27;;;;;;;;;;5011981;28;20042;-61
2023/06/03 04:53:40;;;;;;;3.42;1.23;;;;;;;;;;5011708;28;20057;-60
2023/06/03 04:56:08;;;;;;;2.28;1.00;;;;;;;;;;5011917;28;20053;-59
2023/06/03 04:58:36;;;;;;;2.67;1.05;;;;;;;;;;5011570;28;20057;-59
2023/06/03 05:01:04;;;;;;;3.45;1.23;;;;;;;;;;4994156;28;20050;-60
2023/06/03 05:03:31;;;;;;;4.47;1.17;;;;;;;;;;4994080;28;20054;-60
2023/06/03 05:05:59;;;;;;;9.30;2.58;;;;;;;;;;5011904;28;20418;-59
2023/06/03 05:08:26;;;;;;;1.80;1.02;;;;;;;;;;4993843;28;20057;-60
2023/06/03 05:10:51;;;;;;;2.42;1.20;;;;;;;;;;5011804;28;20104;-60
2023/06/03 05:13:17;;;;;;;4.15;1.20;;;;;;;;;;5011464;28;20048;-60
2023/06/03 05:15:43;;;;;;;1.77;1.13;;;;;;;;;;5011610;28;20486;-60
2023/06/03 05:18:09;;;;;;;5.47;1.35;;;;;;;;;;5010596;28;20053;-59
2023/06/03 05:20:35;;;;;;;2.95;1.05;;;;;;;;;;5011518;28;20402;-60
2023/06/03 05:23:01;;;;;;;3.22;1.40;;;;;;;;;;5011336;28;20053;-60
2023/06/03 05:25:28;;;;;;;3.22;1.08;;;;;;;;;;4994400;28;20451;-60
2023/06/03 05:27:54;;;;;;;5.75;1.35;;;;;;;;;;5014958;28;20494;-59
2023/06/03 05:30:20;;;;;;;2.78;1.30;;;;;;;;;;5014767;28;20058;-60
2023/06/03 05:32:46;;;;;;;5.95;1.40;;;;;;;;;;5013966;28;20053;-60
2023/06/03 05:35:12;;;;;;;3.88;1.23;;;;;;;;;;4997539;28;20095;-60
2023/06/03 05:37:38;;;;;;;4.30;1.23;;;;;;;;;;4997260;28;20501;-60
2023/06/03 05:40:04;;;;;;;2.13;1.15;;;;;;;;;;5014813;28;20049;-60
2023/06/03 05:42:30;;;;;;;2.65;1.27;;;;;;;;;;4997312;28;20572;-61
2023/06/03 05:44:57;;;;;;;3.83;1.33;;;;;;;;;;5014660;28;20049;-60
2023/06/03 05:47:23;;;;;;;4.70;1.23;;;;;;;;;;5014621;28;20133;-60
2023/06/03 05:49:49;;;;;;;3.28;1.30;;;;;;;;;;4997475;28;20484;-60
2023/06/03 05:52:15;;;;;;;2.22;1.35;;;;;;;;;;5014097;28;20548;-60
2023/06/03 05:54:41;;;;;;;3.33;1.40;;;;;;;;;;4997392;28;20046;-61
2023/06/03 05:57:07;;;;;;;3.13;1.17;;;;;;;;;;5014506;28;20046;-60
2023/06/03 05:59:35;;;;;;;3.35;1.10;;;;;;;;;;5014185;28;20313;-61
2023/06/03 06:02:01;;;;;;;1.98;1.20;;;;;;;;;;5014412;28;20041;-60
2023/06/03 06:04:27;;;;;;;4.32;1.30;;;;;;;;;;4997002;28;20133;-61
2023/06/03 06:06:53;;;;;;;4.53;1.35;;;;;;;;;;5014086;28;20137;-60
2023/06/03 06:09:20;;;;;;;2.95;1.20;;;;;;;;;;5014095;28;20046;-60
2023/06/03 06:11:46;;;;;;;3.70;1.20;;;;;;;;;;5014215;28;20053;-61
2023/06/03 06:14:12;;;;;;;2.10;1.05;;;;;;;;;;5014215;28;20045;-60
2023/06/03 06:16:38;;;;;;;4.95;1.15;;;;;;;;;;5014352;28;20037;-60
2023/06/03 06:19:04;;;;;;;6.50;1.52;;;;;;;;;;5014224;28;20049;-60
2023/06/03 06:21:30;;;;;;;3.63;0.93;;;;;;;;;;4995939;28;20065;-61
2023/06/03 06:23:56;;;;;;;6.10;1.20;;;;;;;;;;5013983;28;20046;-61
2023/06/03 06:26:22;;;;;;;4.43;1.10;;;;;;;;;;5013572;28;20111;-61
2023/06/03 06:28:48;;;;;;;2.90;1.10;;;;;;;;;;4996648;28;20054;-61
2023/06/03 06:31:15;;;;;;;5.57;1.85;;;;;;;;;;5013872;28;20048;-61
2023/06/03 06:33:47;;;;;;;2.50;1.08;;;;;;;;;;4996431;28;20049;-61
2023/06/03 06:36:26;;;;;;;2.17;0.90;;;;;;;;;;4995531;28;20057;-62
2023/06/03 06:38:53;;;;;;;2.65;0.90;;;;;;;;;;4996378;28;20133;-60
2023/06/03 06:41:19;;;;;;;4.28;1.02;;;;;;;;;;5013593;28;20437;-60
2023/06/03 06:43:45;;;;;;;4.57;0.95;;;;;;;;;;5013817;28;20049;-60
2023/06/03 06:46:11;;;;;;;4.00;1.55;;;;;;;;;;4996494;28;20061;-60
2023/06/03 06:48:38;;;;;;;2.63;1.10;;;16.90;99.90;;;;;;5013537;28;20048;-61
2023/06/03 06:51:04;;;;;;;2.95;0.77;;;;;;;;;;5013138;28;20052;-61
2023/06/03 06:53:33;;;;;;;2.58;1.10;;;;;;;;;;5013179;28;20582;-61
2023/06/03 06:56:09;;;;;;;1.80;0.90;;;17.30;99.90;;;;;;5013606;28;20100;-61
2023/06/03 06:58:36;;;;;;;1.63;0.80;;;;;;;;;;5013158;28;20088;-61
2023/06/03 07:01:05;;;;;;;4.40;1.17;;;;;;;;;;4995684;28;20045;-61
2023/06/03 07:03:31;;;;;;;2.67;0.88;;;;;;;;;;4995617;28;20054;-61
2023/06/03 07:05:57;;;;;;;4.55;1.10;;;;;;;;;;5012869;28;20037;-61
2023/06/03 07:08:23;;;;;;;5.20;1.00;;;17.90;99.90;;;;;;4995517;28;20042;-61
2023/06/03 07:10:50;;;;;;;2.10;0.80;;;18.00;99.90;;;;;;5013325;28;20107;-61
2023/06/03 07:13:16;;;;;;;5.25;0.90;;;;;;;;;;5011889;28;20498;-61
2023/06/03 07:15:43;;;;;;;5.22;0.80;;;18.20;99.90;;;;;;5013125;28;20046;-61
2023/06/03 07:18:10;;;;;;;6.45;1.10;;;18.70;99.90;;;;;;5012970;28;20045;-62
2023/06/03 07:20:43;;;;;;;2.55;0.70;;;18.40;99.90;;;;;;5012577;28;20060;-61
2023/06/03 07:23:18;;;;;;;2.83;1.05;;;;;;;;;;5013118;28;20049;-61
2023/06/03 07:25:46;;;;;;;2.58;0.90;;;18.90;99.90;;;;;;5011687;28;20486;-61
2023/06/03 07:28:17;;;;;;;4.45;0.98;;;19.30;99.90;;;;;;5012912;28;20053;-61
2023/06/03 07:30:47;;;;;;;2.35;0.90;;;19.40;99.90;;;;;;5012888;28;20078;-61
2023/06/03 07:33:40;;;;;;;3.03;0.80;;;19.70;99.90;;;;;;5012639;28;20053;-64
2023/06/03 07:36:06;;;;;;;4.55;1.00;;;19.90;99.90;;;;;;5012928;28;20049;-61
2023/06/03 07:38:37;;;;;;;2.85;0.70;;;20.10;99.90;;;;;;5012646;28;20552;-61
2023/06/03 07:41:06;;;;;;;2.53;0.90;;;20.40;99.90;;;;;;5012557;28;20482;-61
2023/06/03 07:43:34;;;;;;;3.70;1.33;;;20.20;99.90;;;;;;5012344;28;20037;-61
2023/06/03 07:46:07;;;;;;;2.40;0.82;;;19.90;99.90;;;;;;5012812;28;20041;-62
2023/06/03 07:48:36;;;;;;;3.67;0.88;;;19.70;99.90;;;;;;4977950;28;20058;-61
2023/06/03 07:51:02;;;;;;;2.88;1.10;;;;;;;;;;5012601;28;20155;-61
2023/06/03 07:53:30;;;;;;;3.10;0.80;;;18.80;99.90;;;;;;5012142;28;20049;-62
2023/06/03 07:55:56;;;;;;;1.73;0.75;;;;;;;;;;5012318;28;20520;-62
2023/06/03 07:58:22;;;;;;;4.45;0.90;;;;;;;;;;5012308;28;20050;-61
2023/06/03 08:00:52;;;;;;;3.88;0.88;;;;;;;;;;5012621;28;20129;-61
2023/06/03 08:03:19;;;;;;;2.30;0.88;;;;;;;;;;5011817;28;20050;-61
2023/06/03 08:05:48;;;;;;;3.60;0.80;;;;;;;;;;5012419;28;20120;-62
2023/06/03 08:08:16;;;;;;;1.35;0.70;;;;;;;;;;5012289;28;20050;-64
2023/06/03 08:10:46;;;;;;;1.52;0.85;;;17.30;99.90;;;;;;5012242;28;20057;-61
2023/06/03 08:13:12;;;;;;;;;;;;;;;;;;5012831;28;20060;-61
2023/06/03 08:15:39;;;;;;;3.67;0.80;;;;;;;;;;5012313;28;20007;-62
2023/06/03 08:18:08;;;;;;;3.53;0.82;;;;;;;;;;4994417;28;20057;-62
2023/06/03 08:20:36;;;;;;;2.85;1.15;;;;;;;;;;5011882;28;20116;-61
2023/06/03 08:23:02;;;;;;;6.15;1.08;;;;;;;;;;4994832;28;20116;-62
2023/06/03 08:25:28;;;;;;;3.58;1.70;;;17.00;99.90;;;;;;4994817;28;20049;-61
2023/06/03 08:27:54;;;;;;;4.85;1.10;;;;;;;;;;5011053;28;20049;-61
2023/06/03 08:30:20;;;;;;;3.90;1.17;;;;;;;;;;4994393;28;20061;-61
2023/06/03 08:32:47;;;;;;;1.45;0.60;;;;;;;;;;5011688;28;20045;-61
2023/06/03 08:35:13;;;;;;;1.80;0.82;;;;;;;;;;5011975;28;20490;-63
2023/06/03 08:37:40;;;;;;;3.05;0.98;;;;;;;;;;4994333;28;20911;-61
2023/06/03 08:40:08;;;;;;;15.00;2.45;;;18.70;99.90;;;;;;5012165;28;20043;-61
2023/06/03 08:42:42;;;;;;;2.17;0.70;;;19.10;99.90;;;;;;4994680;28;20049;-61
2023/06/03 08:45:10;;;;;;;1.92;0.80;;;19.60;99.90;;;;;;5012084;28;20061;-61
2023/06/03 08:47:58;;;;;;;4.68;1.27;;;19.60;99.90;;;;;;5011804;28;20050;-61
2023/06/03 08:50:27;;;;;;;2.35;0.80;;;20.10;99.90;;;;;;5011581;28;20048;-61
2023/06/03 08:52:54;;;;;;;3.42;1.00;;;20.40;99.90;;;;;;5010877;28;20057;-61
2023/06/03 08:55:21;;;;;;;2.45;0.80;;;20.50;99.90;;;;;;4994206;28;20137;-61
2023/06/03 08:58:05;;;;;;;2.70;0.82;;;20.60;99.90;;;;;;4994489;28;20045;-61
2023/06/03 09:00:32;;;;;;;2.45;1.00;;;20.60;99.90;;;;;;5013335;28;20046;-61
2023/06/03 09:02:59;;;;;;;3.90;1.00;;;19.90;99.90;;;;;;5015608;28;20468;-61
2023/06/03 09:05:26;;;;;;;1.88;0.90;;;20.30;99.90;;;;;;5015593;28;20053;-61
2023/06/03 09:07:52;;;;;;;2.15;0.65;;;20.50;99.90;;;;;;5015626;28;20045;-62
2023/06/03 09:10:21;;;;;;;3.13;0.75;;;20.60;99.90;;;;;;4997905;28;20042;-61
2023/06/03 09:12:47;;;;;;;1.67;0.70;;;20.60;99.90;;;;;;5015443;28;20042;-61
2023/06/03 09:15:16;;;;;;;2.50;0.60;;;;;;;;;;5014797;28;20050;-64
2023/06/03 09:17:45;;;;;;;1.80;0.60;;;20.80;99.90;;;;;;5015468;28;20502;-62
2023/06/03 09:20:12;;;;;;;2.13;0.80;;;21.10;99.90;;;;;;5015436;28;20092;-62
2023/06/03 09:22:40;;;;;;;4.75;0.77;;;21.50;99.90;;;;;;5015133;28;20463;-61
2023/06/03 09:25:06;;;;;;;3.72;0.85;;;21.40;99.90;;;;;;5015051;28;20037;-61
2023/06/03 09:27:32;;;;;;;3.08;0.90;;;21.40;99.90;;;;;;4997201;28;20045;-62
2023/06/03 09:30:00;;;;;;;3.42;0.80;;;21.60;99.90;;;;;;5014610;28;20107;-62
2023/06/03 09:32:26;;;;;;;4.15;0.60;;;;;;;;;;5014708;28;20482;-62
2023/06/03 09:34:53;;;;;;;3.63;0.57;;;21.30;98.00;;;;;;5015129;28;20053;-62
2023/06/03 09:37:19;;;;;;;5.90;0.98;;;;;;;;;;4997131;28;20468;-62
2023/06/03 09:39:45;;;;;;;1.50;0.63;;;21.80;98.90;;;;;;5015051;28;20399;-62
2023/06/03 09:42:11;;;;;;;1.67;0.75;;;21.50;98.90;;;;;;5014732;28;20041;-63
2023/06/03 09:44:41;;;;;;;3.30;0.80;;;21.50;99.10;;;;;;5014362;28;20046;-62
2023/06/03 09:47:08;;;;;;;3.47;0.95;;;21.80;98.30;;;;;;5014941;28;20046;-62
2023/06/03 09:49:34;;;;;;;2.30;0.60;;;21.70;98.60;;;;;;5014464;28;20046;-61
2023/06/03 09:52:00;;;;;;;2.45;0.60;;;21.90;97.70;;;;;;4997494;28;20417;-62
2023/06/03 09:54:26;;;;;;;3.10;0.70;;;22.30;99.10;;;;;;5014434;28;20443;-62
2023/06/03 09:56:52;;;;;;;2.75;0.75;;;21.90;97.90;;;;;;5014510;28;20042;-62
2023/06/03 09:59:21;;;;;;;6.72;1.10;;;21.80;97.50;;;;;;4996583;28;20052;-61
2023/06/03 10:01:48;;;;;;;3.20;0.57;;;22.00;97.30;;;;;;5014487;28;20065;-61
2023/06/03 10:04:22;;;;;;;10.93;2.80;;;21.90;97.20;;;;;;4996586;28;20065;-62
2023/06/03 10:07:09;;;;;;;4.15;0.90;;;22.00;97.80;;;;;;4996997;28;20050;-61
2023/06/03 10:09:35;;;;;;;3.42;0.70;;;21.20;96.60;;;;;;5004121;28;20453;-62
2023/06/03 10:12:00;;;;;;;2.83;0.68;;;21.70;97.50;;;;;;5013727;28;20054;-62
2023/06/03 10:14:26;;;;;;;16.20;1.80;;;21.80;97.10;;;;;;4996186;28;20402;-62
2023/06/03 10:17:13;;;;;;;3.78;0.80;;;22.70;96.50;;;;;;5012846;28;20049;-62
2023/06/03 10:19:40;;;;;;;4.68;0.80;;;22.40;95.70;;;;;;5014068;28;20489;-62
2023/06/03 10:22:08;;;;;;;2.92;0.70;;;22.20;96.00;;;;;;4996642;28;20089;-61
2023/06/03 10:24:42;;;;;;;1.00;0.45;;;22.30;95.20;;;;;;5013814;28;20056;-62
2023/06/03 10:27:09;;;;;;;2.00;0.73;;;22.20;95.80;;;;;;5013610;28;20049;-61
2023/06/03 10:29:36;;;;;;;2.17;0.60;;;22.20;95.60;;;;;;5013626;28;20096;-62
2023/06/03 10:32:04;;;;;;;1.10;0.50;;;22.30;95.20;;;;;;5013851;28;20046;-62
2023/06/03 10:34:31;;;;;;;0.93;0.60;;;22.10;95.90;;;;;;5012183;28;20061;-61
2023/06/03 10:37:02;;;;;;;1.75;0.80;;;22.20;96.10;;;;;;5014142;28;20129;-61
2023/06/03 10:39:31;;;;;;;1.55;0.60;;;22.10;96.20;;;;;;5013647;28;20120;-61
2023/06/03 10:42:03;;;;;;;2.55;0.70;;;22.40;95.00;;;;;;5013135;28;20494;-62
2023/06/03 10:44:30;;;;;;;4.50;1.00;;;22.60;95.90;;;;;;5013366;28;20582;-62
2023/06/03 10:47:05;;;;;;;3.40;0.70;;;24.10;95.30;;;;;;5013620;28;20043;-61
2023/06/03 10:49:45;;;;;;;3.22;0.90;;;22.20;95.80;;;;;;4995865;28;20063;-62
2023/06/03 10:52:49;;;;;;;5.95;0.60;;;22.50;96.30;;;;;;4979888;28;20046;-62
2023/06/03 10:55:41;;;;;;;1.20;0.50;;;22.20;95.90;;;;;;5013123;28;20057;-62
2023/06/03 10:58:19;;;;;;;3.33;0.80;;;22.50;96.50;;;;;;5009992;28;20092;-62
2023/06/03 11:00:55;;;;;;;2.70;0.65;;;22.70;95.10;;;;;;4995724;28;20088;-62
2023/06/03 11:03:22;;;;;;;4.40;0.70;;;22.70;95.60;;;;;;5012676;28;20073;-63
2023/06/03 11:05:49;;;;;;;4.22;0.90;;;22.50;95.60;;;;;;5013071;28;20107;-62
2023/06/03 11:08:53;;;;;;;2.60;0.57;;;21.70;94.20;;;;;;5013134;28;20076;-62
2023/06/03 11:11:44;;;;;;;6.30;1.15;;;22.10;96.50;;;;;;5012243;28;20505;-62
2023/06/03 11:14:25;;;;;;;3.22;1.00;;;21.60;94.90;;;;;;4995618;28;20104;-62
2023/06/03 11:16:56;;;;;;;2.15;0.90;;;21.90;94.30;;;;;;5013090;28;20062;-62
2023/06/03 11:19:33;;;;;;;5.95;0.88;;;21.90;96.00;;;;;;5012777;28;20100;-62
2023/06/03 11:22:00;;;;;;;3.55;0.70;;;;;;;;;;4995392;28;20097;-62
2023/06/03 11:24:49;;;;;;;3.30;0.80;;;22.40;94.00;;;;;;5011710;28;20081;-62
2023/06/03 11:27:15;;;;;;;2.00;0.70;;;;;;;;;;5004671;28;20530;-62
2023/06/03 11:29:46;;;;;;;1.77;0.60;;;22.40;93.90;;;;;;5013015;28;20130;-62
2023/06/03 11:32:22;;;;;;;5.38;0.75;;;22.50;93.10;;;;;;4995370;28;20042;-62
2023/06/03 11:35:11;;;;;;;2.00;0.82;;;22.50;94.70;;;;;;5012663;28;20054;-62
2023/06/03 11:37:37;;;;;;;3.38;0.68;;;;;;;;;;5012425;28;20042;-62
2023/06/03 11:40:19;;;;;;;4.30;0.60;;;22.20;92.60;;;;;;5012297;28;20045;-62
2023/06/03 11:42:46;;;;;;;2.50;0.75;;;;;;;;;;5012548;28;20088;-62
2023/06/03 11:45:21;;;;;;;4.65;1.35;;;22.80;95.30;;;;;;4995179;28;20053;-62
2023/06/03 11:47:47;;;;;;;1.40;0.55;;;;;;;;;;5012808;28;20148;-62
2023/06/03 11:50:13;;;;;;;1.38;0.65;;;;;;;;;;5012462;28;20124;-63
2023/06/03 11:52:39;;;;;;;1.70;0.80;;;;;;;;;;5012482;28;20065;-62
2023/06/03 11:55:06;;;;;;;3.83;0.80;;;;;;;;;;5012048;28;20453;-62
2023/06/03 11:57:33;;;;;;;2.88;0.70;;;;;;;;;;5011066;28;20060;-62
2023/06/03 12:00:05;;;;;;;5.43;0.80;;;22.10;94.00;;;;;;4994657;28;20052;-62
2023/06/03 12:02:38;;;;;;;2.78;1.20;;;22.10;93.60;;;;;;5012233;28;20097;-62
2023/06/03 12:05:05;;;;;;;1.88;0.70;;;;;;;;;;5012408;28;20051;-62
2023/06/03 12:07:31;;;;;;;3.03;0.73;;;;;;;;;;4994761;28;20493;-62
2023/06/03 12:09:57;;;;;;;2.33;0.63;;;22.90;94.50;;;;;;5011869;28;20097;-62
2023/06/03 12:12:23;;;;;;;1.35;0.68;;;;;;;;;;5011883;28;20168;-62
2023/06/03 12:14:49;;;;;;;1.90;0.70;;;;;;;;;;5012480;28;20609;-62
2023/06/03 12:17:17;;;;;;;5.40;0.80;;;;;;;;;;5012135;28;20058;-63
2023/06/03 12:19:48;;;;;;;1.55;0.60;;;22.80;93.50;;;;;;4994721;28;20521;-62
2023/06/03 12:22:14;;;;;;;3.92;1.40;;;;;;;;;;5011961;28;20490;-63
2023/06/03 12:24:42;;;;;;;4.15;0.75;;;22.50;93.10;;;;;;5011809;28;20153;-62
2023/06/03 12:27:12;;;;;;;1.77;0.75;;;22.50;92.80;;;;;;5012273;28;20057;-62
2023/06/03 12:29:45;;;;;;;3.83;0.80;;;;;;;;;;5011066;28;20053;-62
2023/06/03 12:32:11;;;;;;;1.60;0.70;;;;;;;;;;5012278;28;20053;-62
2023/06/03 12:34:37;;;;;;;1.25;0.60;;;;;;;;;;5012628;28;20490;-62
2023/06/03 12:37:04;;;;;;;6.28;0.90;;;;;;;;;;5016022;28;20092;-62
2023/06/03 12:39:44;;;;;;;1.70;0.70;;;22.50;93.70;;;;;;5015250;28;20123;-62
2023/06/03 12:42:10;;;;;;;1.00;0.60;;;;;;;;;;5016046;28;20057;-62
2023/06/03 12:44:48;;;;;;;1.98;0.70;;;23.10;95.40;;;;;;5015828;28;20042;-62
2023/06/03 12:47:15;;;;;;;2.90;0.80;;;22.70;93.00;;;;;;5015708;28;20050;-62
2023/06/03 12:49:42;;;;;;;3.22;0.77;;;;;;;;;;5015751;28;20391;-63
2023/06/03 12:52:10;;;;;;;3.50;0.80;;;;;;;;;;5015567;28;20072;-62
2023/06/03 12:54:37;;;;;;;2.60;1.10;;;;;;;;;;4998237;28;20041;-62
2023/06/03 12:57:03;;;;;;;2.88;0.98;;;23.40;95.10;;;;;;5015827;28;20053;-62
2023/06/03 12:59:30;;;;;;;1.55;0.70;;;;;;;;;;5015574;28;20115;-62
2023/06/03 13:01:56;;;;;;;3.80;0.90;;;;;;;;;;5014328;28;20050;-62
2023/06/03 13:04:23;;;;;;;4.20;1.05;;;;;;;;;;5015112;28;20069;-62
2023/06/03 13:06:49;;;;;;;6.20;1.05;;;;;;;;;;5015519;28;20053;-63
2023/06/03 13:09:15;;;;;;;4.53;0.95;;;;;;;;;;5015279;28;20050;-63
2023/06/03 13:11:41;;;;;;;3.50;0.95;;;;;;;;;;5015381;28;20550;-63
2023/06/03 13:14:07;;;;;;;2.03;0.90;;;;;;;;;;5015391;28;20085;-62
2023/06/03 13:16:33;;;;;;;1.70;0.70;;;;;;;;;;4997782;28;20375;-63
2023/06/03 13:18:59;;;;;;;1.98;0.80;;;;;;;;;;5015175;28;20072;-63
2023/06/03 13:21:25;;;;;;;2.55;0.80;;;22.50;93.30;;;;;;5014877;28;20038;-62
2023/06/03 13:23:51;;;;;;;2.13;0.88;;;;;;;;;;4997869;28;20133;-63
2023/06/03 13:26:17;;;;;;;2.95;0.75;;;;;;;;;;5014842;28;20490;-62
2023/06/03 13:28:43;;;;;;;2.15;0.93;;;;;;;;;;4997656;28;20775;-62
2023/06/03 13:31:09;;;;;;;2.08;0.70;;;;;;;;;;5015075;28;20503;-62
2023/06/03 13:33:36;;;;;;;2.75;0.77;;;;;;;;;;5013534;28;20049;-62
2023/06/03 13:36:02;;;;;;;2.88;0.82;;;;;;;;;;5014812;28;20085;-62
2023/06/03 13:38:28;;;;;;;1.88;0.75;;;;;;;;;;5014895;28;20046;-62
2023/06/03 13:40:54;;;;;;;2.85;0.80;;;22.70;94.70;;;;;;5014964;28;20092;-63
2023/06/03 13:43:20;;;;;;;2.17;0.85;;;;;;;;;;5014675;28;20088;-62
2023/06/03 13:45:46;;;;;;;2.47;0.70;;;;;;;;;;5014342;28;20053;-63
2023/06/03 13:48:12;;;;;;;2.88;0.70;;;;;;;;;;5014260;28;20525;-63
2023/06/03 13:50:38;;;;;;;4.03;1.70;;;;;;;;;;5014467;28;20042;-63
2023/06/03 13:53:04;;;;;;;1.88;0.80;;;23.30;95.60;;;;;;5014796;28;20081;-62
2023/06/03 13:55:31;;;;;;;2.33;0.93;;;;;;;;;;5014453;28;20391;-63
2023/06/03 13:57:57;;;;;;;2.65;1.15;;;;;;;;;;5014712;28;20046;-63
2023/06/03 14:00:23;;;;;;;2.03;1.27;;;;;;;;;;5014140;28;20049;-63
2023/06/03 14:02:50;;;;;;;1.45;0.85;;;;;;;;;;5014383;28;20159;-63
2023/06/03 14:05:16;;;;;;;3.10;0.80;;;;;;;;;;5014020;28;20128;-63
2023/06/03 14:07:42;;;;;;;2.28;0.82;;;;;;;;;;5014574;28;20100;-62
2023/06/03 14:10:09;;;;;;;1.75;0.73;;;22.50;94.10;;;;;;5014319;28;20050;-62
2023/06/03 14:12:35;;;;;;;3.42;0.90;;;;;;;;;;5014037;28;20124;-62